createdAt,value
2019-01-26T00:01:07.957Z,13.53
2019-01-26T00:03:39.412Z,13.93
2019-01-26T00:06:12.109Z,15.37
2019-01-26T00:08:43.611Z,12.40
2019-01-26T00:11:15.595Z,13.20
2019-01-26T00:13:47.047Z,13.13
2019-01-26T00:16:21.141Z,12.93
2019-01-26T00:18:52.156Z,13.07
2019-01-26T00:21:23.625Z,12.50
2019-01-26T00:23:56.146Z,12.50
2019-01-26T00:26:29.708Z,11.47
2019-01-26T00:29:01.183Z,10.10
2019-01-26T00:31:32.660Z,11.07
2019-01-26T00:34:04.080Z,9.50
2019-01-26T00:36:35.542Z,9.10
2019-01-26T00:39:09.854Z,8.40
2019-01-26T00:41:41.364Z,8.63
2019-01-26T00:44:13.810Z,9.23
2019-01-26T00:46:45.271Z,9.10
2019-01-26T00:49:16.686Z,8.30
2019-01-26T00:51:48.154Z,9.13
2019-01-26T00:54:19.578Z,8.50
2019-01-26T00:56:51.056Z,8.30
2019-01-26T00:59:22.466Z,8.40
2019-01-26T01:01:53.970Z,9.30
2019-01-26T01:04:25.673Z,8.43
2019-01-26T01:06:57.106Z,8.20
2019-01-26T01:09:28.530Z,8.73
2019-01-26T01:12:00.000Z,9.00
2019-01-26T01:14:31.500Z,9.40
2019-01-26T01:17:02.958Z,8.97
2019-01-26T01:19:35.346Z,8.60
2019-01-26T01:22:06.810Z,7.30
2019-01-26T01:24:38.162Z,7.53
2019-01-26T01:27:09.645Z,7.27
2019-01-26T01:29:42.648Z,7.80
2019-01-26T01:32:14.116Z,7.27
2019-01-26T01:34:47.659Z,8.10
2019-01-26T01:37:18.972Z,7.40
2019-01-26T01:39:50.402Z,7.80
2019-01-26T01:42:21.858Z,7.23
2019-01-26T01:44:53.273Z,8.43
2019-01-26T01:47:24.714Z,7.73
2019-01-26T01:50:01.543Z,6.57
2019-01-26T01:52:33.015Z,6.70
2019-01-26T01:55:04.484Z,7.53
2019-01-26T01:57:37.414Z,6.40
2019-01-26T02:00:16.894Z,7.23
2019-01-26T02:02:48.354Z,6.90
2019-01-26T02:05:19.892Z,8.10
2019-01-26T02:07:51.720Z,8.20
2019-01-26T02:10:25.164Z,6.70
2019-01-26T02:12:56.559Z,5.80
2019-01-26T02:15:27.966Z,5.80
2019-01-26T02:17:59.434Z,4.97
2019-01-26T02:20:30.859Z,4.70
2019-01-26T02:23:02.520Z,5.47
2019-01-26T02:25:33.987Z,4.70
2019-01-26T02:28:05.539Z,4.20
2019-01-26T02:30:36.962Z,4.60
2019-01-26T02:33:08.419Z,3.20
2019-01-26T02:35:39.846Z,3.00
2019-01-26T02:38:11.307Z,3.37
2019-01-26T02:40:42.720Z,2.00
2019-01-26T02:43:14.179Z,1.67
2019-01-26T02:45:48.023Z,1.67
2019-01-26T02:48:19.480Z,1.77
2019-01-26T02:50:50.889Z,1.40
2019-01-26T02:53:22.252Z,1.70
2019-01-26T02:55:53.673Z,1.10
2019-01-26T02:58:26.119Z,1.10
2019-01-26T03:00:57.538Z,1.13
2019-01-26T03:03:28.978Z,1.20
2019-01-26T03:06:00.383Z,1.00
2019-01-26T03:08:31.839Z,1.00
2019-01-26T03:11:03.234Z,1.00
2019-01-26T03:13:34.728Z,1.17
2019-01-26T03:16:06.234Z,1.33
2019-01-26T03:18:37.678Z,1.20
2019-01-26T03:21:09.077Z,1.13
2019-01-26T03:23:40.723Z,1.20
2019-01-26T03:26:12.141Z,1.20
2019-01-26T03:28:43.653Z,1.20
2019-01-26T03:31:15.063Z,1.30
2019-01-26T03:33:46.515Z,1.00
2019-01-26T03:36:17.935Z,1.30
2019-01-26T03:38:49.366Z,1.40
2019-01-26T03:41:20.912Z,1.20
2019-01-26T03:43:52.347Z,1.60
2019-01-26T03:46:23.751Z,1.03
2019-01-26T03:48:55.194Z,0.93
2019-01-26T03:51:26.607Z,1.27
2019-01-26T03:53:58.057Z,1.27
2019-01-26T03:56:32.738Z,1.30
2019-01-26T03:59:02.707Z,1.63
2019-01-26T04:01:34.209Z,1.40
2019-01-26T04:04:06.622Z,1.23
2019-01-26T04:06:39.168Z,1.30
2019-01-26T04:09:12.538Z,1.73
2019-01-26T04:11:43.946Z,1.63
2019-01-26T04:14:15.374Z,1.10
2019-01-26T04:16:46.790Z,1.20
2019-01-26T04:19:18.138Z,1.10
2019-01-26T04:21:49.558Z,1.33
2019-01-26T04:24:21.289Z,1.33
2019-01-26T04:26:52.705Z,1.10
2019-01-26T04:29:25.682Z,1.50
2019-01-26T04:31:57.109Z,0.90
2019-01-26T04:34:28.568Z,1.00
2019-01-26T04:36:59.920Z,1.00
2019-01-26T04:39:31.359Z,1.10
2019-01-26T04:42:02.784Z,1.33
2019-01-26T04:44:34.153Z,1.20
2019-01-26T04:47:07.337Z,1.20
2019-01-26T04:49:39.779Z,1.50
2019-01-26T04:52:11.232Z,0.97
2019-01-26T04:54:42.735Z,1.03
2019-01-26T04:57:14.155Z,1.00
2019-01-26T04:59:48.584Z,1.30
2019-01-26T05:02:20.042Z,1.20
2019-01-26T05:04:51.536Z,0.90
2019-01-26T05:07:23.015Z,1.20
2019-01-26T05:09:54.461Z,1.40
2019-01-26T05:12:25.973Z,1.50
2019-01-26T05:14:57.446Z,1.10
2019-01-26T05:17:28.892Z,1.27
2019-01-26T05:20:00.349Z,1.40
2019-01-26T05:22:31.785Z,0.97
2019-01-26T05:25:03.231Z,0.90
2019-01-26T05:27:34.639Z,1.50
2019-01-26T05:30:10.251Z,0.80
2019-01-26T05:32:41.665Z,0.93
2019-01-26T05:35:13.111Z,0.90
2019-01-26T05:37:45.893Z,0.83
2019-01-26T05:40:17.724Z,1.17
2019-01-26T05:42:50.826Z,1.30
2019-01-26T05:45:25.775Z,0.97
2019-01-26T05:47:58.297Z,1.00
2019-01-26T05:50:29.760Z,0.53
2019-01-26T05:53:01.181Z,1.10
2019-01-26T05:55:32.712Z,1.17
2019-01-26T05:58:04.336Z,1.07
2019-01-26T06:00:36.638Z,0.90
2019-01-26T06:03:08.051Z,0.60
2019-01-26T06:05:42.903Z,0.90
2019-01-26T06:08:14.309Z,0.70
2019-01-26T06:10:45.761Z,0.93
2019-01-26T06:13:17.191Z,0.83
2019-01-26T06:15:48.670Z,1.00
2019-01-26T06:18:20.067Z,0.90
2019-01-26T06:20:51.507Z,0.83
2019-01-26T06:23:22.927Z,1.00
2019-01-26T06:25:54.385Z,0.87
2019-01-26T06:28:25.810Z,0.90
2019-01-26T06:30:58.495Z,0.80
2019-01-26T06:33:29.935Z,0.80
2019-01-26T06:36:01.391Z,1.00
2019-01-26T06:38:32.728Z,1.17
2019-01-26T06:41:05.897Z,0.80
2019-01-26T06:43:38.407Z,0.90
2019-01-26T06:46:11.345Z,0.90
2019-01-26T06:48:42.693Z,1.00
2019-01-26T06:51:14.127Z,0.97
2019-01-26T06:53:45.555Z,1.10
2019-01-26T06:56:16.991Z,0.80
2019-01-26T06:58:48.417Z,1.37
2019-01-26T07:01:19.789Z,1.00
2019-01-26T07:03:51.219Z,0.90
2019-01-26T07:06:27.503Z,1.03
2019-01-26T07:08:59.103Z,0.93
2019-01-26T07:11:30.527Z,0.97
2019-01-26T07:14:02.003Z,1.07
2019-01-26T07:16:33.431Z,0.90
2019-01-26T07:19:04.841Z,0.83
2019-01-26T07:21:36.279Z,0.80
2019-01-26T07:24:07.682Z,1.30
2019-01-26T07:26:39.133Z,1.23
2019-01-26T07:29:10.578Z,1.27
2019-01-26T07:31:42.048Z,0.90
2019-01-26T07:34:13.470Z,1.30
2019-01-26T07:36:44.904Z,0.80
2019-01-26T07:39:16.275Z,0.90
2019-01-26T07:41:47.734Z,1.00
2019-01-26T07:44:19.066Z,0.87
2019-01-26T07:46:53.245Z,0.80
2019-01-26T07:49:24.657Z,1.00
2019-01-26T07:51:56.104Z,1.33
2019-01-26T07:54:29.958Z,0.90
2019-01-26T07:57:01.371Z,0.90
2019-01-26T07:59:32.790Z,1.00
2019-01-26T08:02:04.236Z,0.90
2019-01-26T08:04:35.659Z,1.03
2019-01-26T08:07:07.509Z,1.03
2019-01-26T08:09:38.959Z,0.90
2019-01-26T08:12:12.073Z,0.90
2019-01-26T08:14:44.804Z,0.83
2019-01-26T08:17:16.294Z,0.80
2019-01-26T08:19:47.693Z,0.90
2019-01-26T08:22:20.643Z,1.07
2019-01-26T08:24:52.075Z,1.20
2019-01-26T08:27:24.528Z,1.40
2019-01-26T08:29:55.939Z,1.20
2019-01-26T08:32:27.380Z,0.90
2019-01-26T08:34:58.834Z,1.23
2019-01-26T08:37:30.353Z,1.30
2019-01-26T08:40:01.784Z,0.80
2019-01-26T08:42:33.231Z,1.07
2019-01-26T08:45:06.657Z,1.47
2019-01-26T08:47:38.121Z,1.67
2019-01-26T08:50:25.384Z,1.13
2019-01-26T08:52:56.848Z,1.17
2019-01-26T08:55:28.258Z,1.07
2019-01-26T08:58:00.763Z,1.07
2019-01-26T09:00:32.189Z,0.87
2019-01-26T09:03:19.711Z,0.70
2019-01-26T09:06:02.529Z,0.80
2019-01-26T09:08:34.119Z,1.00
2019-01-26T09:11:05.671Z,0.80
2019-01-26T09:13:37.041Z,0.87
2019-01-26T09:16:11.069Z,1.20
2019-01-26T09:18:42.575Z,1.50
2019-01-26T09:21:13.997Z,1.10
2019-01-26T09:23:45.455Z,0.90
2019-01-26T09:26:18.495Z,1.20
2019-01-26T09:28:50.681Z,1.13
2019-01-26T09:31:23.880Z,0.93
2019-01-26T09:33:55.310Z,1.07
2019-01-26T09:36:26.749Z,1.27
2019-01-26T09:38:58.195Z,1.00
2019-01-26T09:41:29.666Z,1.00
2019-01-26T09:44:01.150Z,1.07
2019-01-26T09:46:32.789Z,0.80
2019-01-26T09:49:05.310Z,0.93
2019-01-26T09:51:37.200Z,1.00
2019-01-26T09:54:08.845Z,1.10
2019-01-26T09:56:40.271Z,1.40
2019-01-26T09:59:11.770Z,1.10
2019-01-26T10:01:43.206Z,1.43
2019-01-26T10:04:15.574Z,1.33
2019-01-26T10:06:47.054Z,1.20
2019-01-26T10:09:18.622Z,1.70
2019-01-26T10:11:50.095Z,1.50
2019-01-26T10:14:21.565Z,1.50
2019-01-26T10:16:53.028Z,1.53
2019-01-26T10:19:24.446Z,1.53
2019-01-26T10:21:56.004Z,1.30
2019-01-26T10:24:27.877Z,1.53
2019-01-26T10:26:59.296Z,1.20
2019-01-26T10:29:30.832Z,0.83
2019-01-26T10:32:02.307Z,1.10
2019-01-26T10:34:33.742Z,1.20
2019-01-26T10:37:11.281Z,6.47
2019-01-26T10:39:45.764Z,1.37
2019-01-26T10:42:23.984Z,1.40
2019-01-26T10:44:58.026Z,0.90
2019-01-26T10:47:29.544Z,1.30
2019-01-26T10:50:02.494Z,1.27
2019-01-26T10:52:33.961Z,1.30
2019-01-26T10:55:08.506Z,1.00
2019-01-26T10:57:40.029Z,1.37
2019-01-26T11:00:15.459Z,1.27
2019-01-26T11:02:46.918Z,1.73
2019-01-26T11:05:18.721Z,1.43
2019-01-26T11:07:50.199Z,1.20
2019-01-26T11:10:21.660Z,1.30
2019-01-26T11:12:53.117Z,1.10
2019-01-26T11:15:24.622Z,1.20
2019-01-26T11:17:56.066Z,1.20
2019-01-26T11:20:29.160Z,1.40
2019-01-26T11:23:00.656Z,1.50
2019-01-26T11:25:34.459Z,1.50
2019-01-26T11:28:05.895Z,2.30
2019-01-26T11:30:38.413Z,3.83
2019-01-26T11:33:09.877Z,2.60
2019-01-26T11:35:41.337Z,1.47
2019-01-26T11:38:13.084Z,0.90
2019-01-26T11:40:51.037Z,1.13
2019-01-26T11:43:36.716Z,1.30
2019-01-26T11:46:16.884Z,1.70
2019-01-26T11:48:50.539Z,1.30
2019-01-26T11:51:32.928Z,6.13
2019-01-26T11:54:04.369Z,2.60
2019-01-26T11:56:47.741Z,1.17
2019-01-26T11:59:19.323Z,1.30
2019-01-26T12:02:10.826Z,1.07
2019-01-26T12:04:50.387Z,1.10
2019-01-26T12:07:26.917Z,1.40
2019-01-26T12:09:58.391Z,1.80
2019-01-26T12:12:29.889Z,1.30
2019-01-26T12:15:01.252Z,0.97
2019-01-26T12:17:32.771Z,1.00
2019-01-26T12:20:04.994Z,1.53
2019-01-26T12:22:36.595Z,1.40
2019-01-26T12:25:08.197Z,1.40
2019-01-26T12:27:40.189Z,1.10
2019-01-26T12:30:13.291Z,1.27
2019-01-26T12:32:44.700Z,1.20
2019-01-26T12:35:16.181Z,1.30
2019-01-26T12:37:48.867Z,1.30
2019-01-26T12:40:20.316Z,1.57
2019-01-26T12:42:51.751Z,1.57
2019-01-26T12:45:23.295Z,1.63
2019-01-26T12:47:55.925Z,0.90
2019-01-26T12:50:27.446Z,1.30
2019-01-26T12:52:59.034Z,1.13
2019-01-26T12:55:30.643Z,1.20
2019-01-26T12:58:02.175Z,1.13
2019-01-26T13:00:33.912Z,1.07
2019-01-26T13:03:05.963Z,1.20
2019-01-26T13:05:37.502Z,1.33
2019-01-26T13:08:10.028Z,1.43
2019-01-26T13:10:46.600Z,1.17
2019-01-26T13:13:20.124Z,1.40
2019-01-26T13:15:51.364Z,1.77
2019-01-26T13:18:22.813Z,1.50
2019-01-26T13:20:54.236Z,1.50
2019-01-26T13:23:25.712Z,1.43
2019-01-26T13:25:59.710Z,1.40
2019-01-26T13:28:31.201Z,1.20
2019-01-26T13:31:02.684Z,1.30
2019-01-26T13:33:34.217Z,1.20
2019-01-26T13:36:06.104Z,1.30
2019-01-26T13:38:37.570Z,1.03
2019-01-26T13:41:09.036Z,1.07
2019-01-26T13:43:40.503Z,1.20
2019-01-26T13:46:11.945Z,1.20
2019-01-26T13:48:44.711Z,1.50
2019-01-26T13:51:16.130Z,1.47
2019-01-26T13:53:47.629Z,1.57
2019-01-26T13:56:19.093Z,1.40
2019-01-26T13:58:50.524Z,1.50
2019-01-26T14:01:21.956Z,1.30
2019-01-26T14:03:53.450Z,1.27
2019-01-26T14:06:24.878Z,1.20
2019-01-26T14:08:56.361Z,1.23
2019-01-26T14:11:29.361Z,1.27
2019-01-26T14:14:00.834Z,1.40
2019-01-26T14:16:32.319Z,1.60
2019-01-26T14:19:03.915Z,1.63
2019-01-26T14:21:35.422Z,1.50
2019-01-26T14:24:06.819Z,1.47
2019-01-26T14:26:38.316Z,1.40
2019-01-26T14:29:13.652Z,1.30
2019-01-26T14:31:45.121Z,1.63
2019-01-26T14:34:16.568Z,1.50
2019-01-26T14:36:48.010Z,1.40
2019-01-26T14:39:19.812Z,1.37
2019-01-26T14:41:51.265Z,1.27
2019-01-26T14:44:24.405Z,1.50
2019-01-26T14:46:55.841Z,1.33
2019-01-26T14:49:27.521Z,1.10
2019-01-26T14:51:59.927Z,1.20
2019-01-26T14:54:31.483Z,1.23
2019-01-26T14:57:02.964Z,1.00
2019-01-26T14:59:35.451Z,1.13
2019-01-26T15:02:07.136Z,1.00
2019-01-26T15:04:38.700Z,1.20
2019-01-26T15:07:10.218Z,1.37
2019-01-26T15:09:41.800Z,1.10
2019-01-26T15:12:13.219Z,1.50
2019-01-26T15:14:44.710Z,1.23
2019-01-26T15:17:16.180Z,1.17
2019-01-26T15:19:47.616Z,1.60
2019-01-26T15:22:19.054Z,1.10
2019-01-26T15:24:50.501Z,1.30
2019-01-26T15:27:24.336Z,1.70
2019-01-26T15:29:55.969Z,1.57
2019-01-26T15:32:27.406Z,1.33
2019-01-26T15:34:58.862Z,1.13
2019-01-26T15:37:30.258Z,1.60
2019-01-26T15:40:01.690Z,1.60
2019-01-26T15:42:33.118Z,1.40
2019-01-26T15:45:06.023Z,2.23
2019-01-26T15:47:37.514Z,2.17
2019-01-26T15:50:13.100Z,1.97
2019-01-26T15:52:43.401Z,2.00
2019-01-26T15:55:17.851Z,1.80
2019-01-26T15:57:49.272Z,1.70
2019-01-26T16:00:27.407Z,2.00
2019-01-26T16:02:59.057Z,2.07
2019-01-26T16:05:30.633Z,2.40
2019-01-26T16:08:03.033Z,2.00
2019-01-26T16:10:34.505Z,2.00
2019-01-26T16:13:06.678Z,1.80
2019-01-26T16:15:38.949Z,1.63
2019-01-26T16:18:14.357Z,1.50
2019-01-26T16:20:45.932Z,1.60
2019-01-26T16:23:17.402Z,1.77
2019-01-26T16:25:48.927Z,1.40
2019-01-26T16:28:20.496Z,1.80
2019-01-26T16:30:52.000Z,1.33
2019-01-26T16:33:23.491Z,1.50
2019-01-26T16:35:55.055Z,1.70
2019-01-26T16:38:29.472Z,1.60
2019-01-26T16:41:02.042Z,1.67
2019-01-26T16:43:33.474Z,2.03
2019-01-26T16:46:04.983Z,1.90
2019-01-26T16:48:36.585Z,1.90
2019-01-26T16:51:08.788Z,2.23
2019-01-26T16:53:40.287Z,1.50
2019-01-26T16:56:11.837Z,1.80
2019-01-26T16:58:43.379Z,2.43
2019-01-26T17:01:14.826Z,2.27
2019-01-26T17:03:46.365Z,1.97
2019-01-26T17:06:17.876Z,2.10
2019-01-26T17:08:49.318Z,2.50
2019-01-26T17:11:20.716Z,2.40
2019-01-26T17:13:52.243Z,2.50
2019-01-26T17:16:23.751Z,1.80
2019-01-26T17:18:55.194Z,1.93
2019-01-26T17:21:27.637Z,3.10
2019-01-26T17:23:59.079Z,2.00
2019-01-26T17:26:30.550Z,2.00
2019-01-26T17:29:03.948Z,1.70
2019-01-26T17:31:35.416Z,2.13
2019-01-26T17:34:06.890Z,2.13
2019-01-26T17:36:38.339Z,1.90
2019-01-26T17:39:13.349Z,2.03
2019-01-26T17:41:44.893Z,3.13
2019-01-26T17:44:16.306Z,2.17
2019-01-26T17:46:47.757Z,2.10
2019-01-26T17:49:19.160Z,2.30
2019-01-26T17:51:50.609Z,1.50
2019-01-26T17:54:22.025Z,1.90
2019-01-26T17:56:53.480Z,1.73
2019-01-26T17:59:25.007Z,1.90
2019-01-26T18:01:58.831Z,1.83
2019-01-26T18:04:30.250Z,1.80
2019-01-26T18:07:01.690Z,2.23
2019-01-26T18:09:34.080Z,2.30
2019-01-26T18:12:08.700Z,2.80
2019-01-26T18:14:40.129Z,3.03
2019-01-26T18:17:11.708Z,2.97
2019-01-26T18:19:43.162Z,2.07
2019-01-26T18:22:14.657Z,1.97
2019-01-26T18:24:47.588Z,2.03
2019-01-26T18:27:19.034Z,2.43
2019-01-26T18:29:50.513Z,2.67
2019-01-26T18:32:23.606Z,2.00
2019-01-26T18:34:55.042Z,2.80
2019-01-26T18:37:27.525Z,2.60
2019-01-26T18:39:58.960Z,1.67
2019-01-26T18:42:31.559Z,2.80
2019-01-26T18:45:02.976Z,2.80
2019-01-26T18:47:34.626Z,3.07
2019-01-26T18:50:08.785Z,2.60
2019-01-26T18:52:40.264Z,2.80
2019-01-26T18:55:13.119Z,2.00
2019-01-26T18:57:44.675Z,2.60
2019-01-26T19:00:30.160Z,4.20
2019-01-26T19:03:28.102Z,2.73
2019-01-26T19:05:59.767Z,2.70
2019-01-26T19:08:31.274Z,2.90
2019-01-26T19:11:02.774Z,2.67
2019-01-26T19:13:34.298Z,2.43
2019-01-26T19:16:07.370Z,3.50
2019-01-26T19:18:38.997Z,3.30
2019-01-26T19:21:10.560Z,3.00
2019-01-26T19:23:44.520Z,3.00
2019-01-26T19:26:15.944Z,3.27
2019-01-26T19:28:47.482Z,3.57
2019-01-26T19:31:19.382Z,2.83
2019-01-26T19:33:50.879Z,3.00
2019-01-26T19:36:22.311Z,2.67
2019-01-26T19:38:53.771Z,2.93
2019-01-26T19:41:25.201Z,3.70
2019-01-26T19:43:56.664Z,3.63
2019-01-26T19:46:28.076Z,3.90
2019-01-26T19:48:59.529Z,3.40
2019-01-26T19:51:30.936Z,2.70
2019-01-26T19:54:02.417Z,3.80
2019-01-26T19:56:33.922Z,3.50
2019-01-26T19:59:05.774Z,3.00
2019-01-26T20:01:37.192Z,2.73
2019-01-26T20:04:08.745Z,3.40
2019-01-26T20:06:40.196Z,3.50
2019-01-26T20:09:11.911Z,3.00
2019-01-26T20:11:43.344Z,3.90
2019-01-26T20:14:14.722Z,4.27
2019-01-26T20:16:46.163Z,3.50
2019-01-26T20:19:17.751Z,3.70
2019-01-26T20:21:49.176Z,4.07
2019-01-26T20:24:20.717Z,4.60
2019-01-26T20:26:52.111Z,3.83
2019-01-26T20:29:23.594Z,4.10
2019-01-26T20:31:55.006Z,4.43
2019-01-26T20:34:26.565Z,4.47
2019-01-26T20:36:57.945Z,4.10
2019-01-26T20:39:29.565Z,4.47
2019-01-26T20:42:01.066Z,3.60
2019-01-26T20:44:32.587Z,4.20
2019-01-26T20:47:04.009Z,4.43
2019-01-26T20:49:35.450Z,5.20
2019-01-26T20:52:06.878Z,4.60
2019-01-26T20:54:38.395Z,3.90
2019-01-26T20:57:10.864Z,4.40
2019-01-26T20:59:42.375Z,6.03
2019-01-26T21:02:13.857Z,4.77
2019-01-26T21:04:45.297Z,5.13
2019-01-26T21:07:20.328Z,5.23
2019-01-26T21:09:51.771Z,5.90
2019-01-26T21:12:23.193Z,6.13
2019-01-26T21:14:54.628Z,5.80
2019-01-26T21:17:26.054Z,5.90
2019-01-26T21:19:57.541Z,5.60
2019-01-26T21:22:28.966Z,5.60
2019-01-26T21:25:01.631Z,6.13
2019-01-26T21:27:33.235Z,7.23
2019-01-26T21:30:05.933Z,5.93
2019-01-26T21:32:37.360Z,6.13
2019-01-26T21:35:09.949Z,5.80
2019-01-26T21:37:41.437Z,6.70
2019-01-26T21:40:20.072Z,6.90
2019-01-26T21:42:51.502Z,8.33
2019-01-26T21:45:23.210Z,8.00
2019-01-26T21:47:57.140Z,6.80
2019-01-26T21:50:30.566Z,6.53
2019-01-26T21:53:02.092Z,6.90
2019-01-26T21:55:34.342Z,7.40
2019-01-26T21:58:05.903Z,7.17
2019-01-26T22:00:37.348Z,5.97
2019-01-26T22:03:08.815Z,7.00
2019-01-26T22:05:40.272Z,6.67
2019-01-26T22:08:11.767Z,7.33
2019-01-26T22:10:43.193Z,6.30
2019-01-26T22:13:18.386Z,6.80
2019-01-26T22:15:49.850Z,6.50
2019-01-26T22:18:21.653Z,7.70
2019-01-26T22:20:53.155Z,9.30
2019-01-26T22:23:24.584Z,8.90
2019-01-26T22:25:56.110Z,10.87
2019-01-26T22:28:27.567Z,10.60
2019-01-26T22:30:58.990Z,11.10
2019-01-26T22:33:30.447Z,11.50
2019-01-26T22:36:03.470Z,15.40
2019-01-26T22:38:35.201Z,10.40
2019-01-26T22:41:06.616Z,9.80
2019-01-26T22:43:38.021Z,10.87
2019-01-26T22:46:09.483Z,10.10
2019-01-26T22:48:40.919Z,11.17
2019-01-26T22:51:13.904Z,11.67
2019-01-26T22:53:45.319Z,14.93
2019-01-26T22:56:16.716Z,12.40
2019-01-26T22:58:48.190Z,15.57
2019-01-26T23:01:33.209Z,14.03
2019-01-26T23:05:34.617Z,14.00
2019-01-26T23:08:16.696Z,14.50
2019-01-26T23:11:50.084Z,13.13
2019-01-26T23:15:15.242Z,15.30
2019-01-26T23:18:54.854Z,13.63
2019-01-26T23:22:41.436Z,15.77
2019-01-26T23:25:49.990Z,16.37
2019-01-26T23:29:33.002Z,14.83
2019-01-26T23:32:06.268Z,16.30
2019-01-26T23:34:37.728Z,14.60
2019-01-26T23:37:09.152Z,15.50
2019-01-26T23:39:42.666Z,15.07
2019-01-26T23:42:14.091Z,15.53
2019-01-26T23:44:46.407Z,15.90
2019-01-26T23:47:17.814Z,15.97
2019-01-26T23:49:49.245Z,17.57
2019-01-26T23:52:20.688Z,17.30
2019-01-26T23:54:52.051Z,17.67
2019-01-26T23:57:23.480Z,15.40
2019-01-26T23:59:54.973Z,14.40
